createdAt,value
2023-03-26T00:00:54.144Z,96111.34
2023-03-26T00:03:20.610Z,96108.81
2023-03-26T00:05:48.165Z,96110.50
2023-03-26T00:08:16.804Z,96113.09
2023-03-26T00:10:44.087Z,96124.97
2023-03-26T00:13:11.219Z,96128.31
2023-03-26T00:15:38.313Z,96125.75
2023-03-26T00:18:05.675Z,96137.66
2023-03-26T00:20:35.308Z,96136.88
2023-03-26T00:23:01.912Z,96140.25
2023-03-26T00:25:28.391Z,96146.25
2023-03-26T00:27:55.573Z,96138.63
2023-03-26T00:30:22.183Z,96149.72
2023-03-26T00:32:53.588Z,96139.47
2023-03-26T00:35:22.291Z,96131.84
2023-03-26T00:37:51.437Z,96136.06
2023-03-26T00:40:17.937Z,96134.31
2023-03-26T00:42:44.500Z,96129.22
2023-03-26T00:45:11.324Z,96129.22
2023-03-26T00:47:40.008Z,96133.47
2023-03-26T00:50:07.567Z,96133.41
2023-03-26T00:52:36.122Z,96135.09
2023-03-26T00:55:03.016Z,96128.34
2023-03-26T00:57:35.591Z,96141.16
2023-03-26T01:00:18.813Z,96140.31
2023-03-26T01:02:46.177Z,96135.19
2023-03-26T01:06:11.233Z,96125.06
2023-03-26T01:08:49.558Z,96133.59
2023-03-26T01:11:21.823Z,96136.13
2023-03-26T01:13:54.649Z,96129.31
2023-03-26T01:16:27.884Z,96131.84
2023-03-26T01:18:58.601Z,96127.63
2023-03-26T01:21:30.117Z,96138.69
2023-03-26T01:24:01.638Z,96129.34
2023-03-26T01:26:43.263Z,96131.91
2023-03-26T01:29:20.728Z,96133.63
2023-03-26T01:32:34.796Z,96130.25
2023-03-26T01:35:25.958Z,96138.72
2023-03-26T01:38:18.482Z,96128.47
2023-03-26T01:40:51.009Z,96134.41
2023-03-26T01:43:26.448Z,96132.69
2023-03-26T01:45:54.392Z,96129.25
2023-03-26T01:48:21.096Z,96125.84
2023-03-26T01:50:48.908Z,96125.84
2023-03-26T01:53:15.655Z,96129.22
2023-03-26T01:55:43.472Z,96122.44
2023-03-26T01:58:26.392Z,96126.66
2023-03-26T02:01:06.916Z,96118.16
2023-03-26T02:03:47.476Z,96122.44
2023-03-26T02:06:26.437Z,96113.13
2023-03-26T02:08:56.601Z,96117.31
2023-03-26T02:11:23.572Z,96119.00
2023-03-26T02:13:51.210Z,96116.47
2023-03-26T02:16:20.276Z,96113.97
2023-03-26T02:18:51.307Z,96124.22
2023-03-26T02:21:21.363Z,96111.47
2023-03-26T02:23:50.771Z,96107.22
2023-03-26T02:26:20.186Z,96105.50
2023-03-26T02:28:46.597Z,96106.38
2023-03-26T02:31:13.677Z,96103.84
2023-03-26T02:33:40.194Z,96114.03
2023-03-26T02:36:08.371Z,96108.91
2023-03-26T02:38:35.176Z,96105.50
2023-03-26T02:41:02.716Z,96110.59
2023-03-26T02:43:29.161Z,96100.38
2023-03-26T02:45:56.021Z,96095.34
2023-03-26T02:48:22.953Z,96097.84
2023-03-26T02:50:54.225Z,96090.22
2023-03-26T02:53:23.706Z,96079.19
2023-03-26T02:55:50.221Z,96082.56
2023-03-26T02:58:17.406Z,96080.03
2023-03-26T03:00:46.721Z,96084.31
2023-03-26T03:03:13.778Z,96076.63
2023-03-26T03:05:43.143Z,96073.22
2023-03-26T03:08:10.114Z,96080.03
2023-03-26T03:10:37.741Z,96067.31
2023-03-26T03:13:07.632Z,96054.53
2023-03-26T03:15:34.914Z,96059.63
2023-03-26T03:18:02.069Z,96057.03
2023-03-26T03:20:30.259Z,96052.72
2023-03-26T03:22:56.666Z,96056.06
2023-03-26T03:25:23.320Z,96058.56
2023-03-26T03:27:50.253Z,96061.91
2023-03-26T03:30:17.012Z,96060.25
2023-03-26T03:32:43.482Z,96063.66
2023-03-26T03:35:10.150Z,96064.47
2023-03-26T03:37:36.670Z,96068.69
2023-03-26T03:40:05.354Z,96069.56
2023-03-26T03:42:31.715Z,96058.53
2023-03-26T03:44:58.057Z,96056.00
2023-03-26T03:47:24.522Z,96049.22
2023-03-26T03:49:51.756Z,96044.97
2023-03-26T03:52:18.378Z,96044.16
2023-03-26T03:54:45.214Z,96037.38
2023-03-26T03:57:11.642Z,96044.19
2023-03-26T03:59:38.054Z,96037.38
2023-03-26T04:02:14.137Z,96027.13
2023-03-26T04:04:40.640Z,96028.78
2023-03-26T04:07:07.062Z,96031.38
2023-03-26T04:09:33.463Z,96029.66
2023-03-26T04:11:59.793Z,96029.66
2023-03-26T04:14:26.229Z,96024.44
2023-03-26T04:16:52.647Z,96021.00
2023-03-26T04:19:19.089Z,96027.72
2023-03-26T04:21:45.437Z,96025.13
2023-03-26T04:24:11.970Z,96025.09
2023-03-26T04:26:38.380Z,96022.47
2023-03-26T04:29:06.875Z,96022.50
2023-03-26T04:31:34.003Z,96028.34
2023-03-26T04:34:20.093Z,96027.44
2023-03-26T04:36:46.494Z,96024.84
2023-03-26T04:39:13.445Z,96024.00
2023-03-26T04:41:40.555Z,96023.03
2023-03-26T04:44:06.995Z,96032.38
2023-03-26T04:46:33.730Z,96029.72
2023-03-26T04:49:01.082Z,96031.38
2023-03-26T04:51:41.969Z,96027.81
2023-03-26T04:54:12.588Z,96027.88
2023-03-26T04:56:59.189Z,96023.53
2023-03-26T04:59:34.970Z,96018.41
2023-03-26T05:02:03.522Z,96006.50
2023-03-26T05:04:30.119Z,96015.84
2023-03-26T05:07:00.816Z,96012.47
2023-03-26T05:09:27.862Z,96009.00
2023-03-26T05:11:54.326Z,96006.53
2023-03-26T05:14:20.886Z,96007.31
2023-03-26T05:16:50.350Z,96018.34
2023-03-26T05:19:16.818Z,96005.63
2023-03-26T05:21:43.320Z,96004.81
2023-03-26T05:24:09.826Z,96009.91
2023-03-26T05:26:36.917Z,96001.41
2023-03-26T05:29:04.934Z,95995.50
2023-03-26T05:31:31.298Z,95992.09
2023-03-26T05:34:00.262Z,95994.66
2023-03-26T05:36:28.380Z,95989.63
2023-03-26T05:38:55.004Z,95986.22
2023-03-26T05:41:21.413Z,95981.16
2023-03-26T05:43:48.870Z,95985.41
2023-03-26T05:46:15.997Z,95979.53
2023-03-26T05:48:42.479Z,95986.31
2023-03-26T05:51:09.212Z,95982.09
2023-03-26T05:53:36.021Z,95976.22
2023-03-26T05:56:02.463Z,95971.97
2023-03-26T05:58:31.642Z,95970.31
2023-03-26T06:00:59.983Z,95959.38
2023-03-26T06:03:26.632Z,95961.13
2023-03-26T06:05:53.194Z,95960.34
2023-03-26T06:08:20.830Z,95947.66
2023-03-26T06:10:47.598Z,95945.97
2023-03-26T06:13:16.129Z,95948.59
2023-03-26T06:15:42.919Z,95949.50
2023-03-26T06:18:09.641Z,95951.25
2023-03-26T06:20:36.398Z,95951.25
2023-03-26T06:23:02.900Z,95946.22
2023-03-26T06:25:29.311Z,95939.47
2023-03-26T06:27:55.721Z,95937.84
2023-03-26T06:30:22.121Z,95933.59
2023-03-26T06:32:48.710Z,95919.19
2023-03-26T06:35:15.224Z,95923.47
2023-03-26T06:37:42.418Z,95927.72
2023-03-26T06:40:09.348Z,95920.94
2023-03-26T06:43:09.332Z,95915.88
2023-03-26T06:45:22.368Z,95917.63
2023-03-26T06:47:48.844Z,95924.41
2023-03-26T06:50:15.289Z,95913.41
2023-03-26T06:52:41.724Z,95909.97
2023-03-26T06:55:08.596Z,95915.06
2023-03-26T06:57:34.986Z,95916.72
2023-03-26T07:00:01.612Z,95909.94
2023-03-26T07:02:28.379Z,95904.78
2023-03-26T07:04:54.762Z,95899.69
2023-03-26T07:07:23.895Z,95900.53
2023-03-26T07:09:51.008Z,95895.47
2023-03-26T07:12:17.633Z,95892.13
2023-03-26T07:14:44.094Z,95893.03
2023-03-26T07:17:10.622Z,95887.97
2023-03-26T07:19:37.017Z,95890.50
2023-03-26T07:22:03.795Z,95885.41
2023-03-26T07:24:30.586Z,95887.97
2023-03-26T07:27:17.464Z,95874.41
2023-03-26T07:29:49.798Z,95876.09
2023-03-26T07:32:24.207Z,95871.09
2023-03-26T07:35:05.855Z,95871.13
2023-03-26T07:38:16.749Z,95866.88
2023-03-26T07:40:52.417Z,95861.81
2023-03-26T07:43:36.830Z,95853.31
2023-03-26T07:46:03.540Z,95856.75
2023-03-26T07:48:47.769Z,95859.28
2023-03-26T07:51:18.788Z,95850.84
2023-03-26T07:53:45.544Z,95850.00
2023-03-26T07:56:16.353Z,95851.72
2023-03-26T07:59:31.161Z,95848.34
2023-03-26T08:02:18.635Z,95848.31
2023-03-26T08:05:18.664Z,95830.50
2023-03-26T08:08:27.109Z,95837.31
2023-03-26T08:11:23.514Z,95828.81
2023-03-26T08:13:52.819Z,95820.31
2023-03-26T08:16:28.058Z,95817.78
2023-03-26T08:18:54.505Z,95824.63
2023-03-26T08:21:26.154Z,95817.81
2023-03-26T08:23:55.524Z,95811.91
2023-03-26T08:26:35.698Z,95805.94
2023-03-26T08:29:28.476Z,95806.78
2023-03-26T08:31:56.064Z,95800.00
2023-03-26T08:34:22.427Z,95786.41
2023-03-26T08:36:48.872Z,95791.50
2023-03-26T08:39:15.257Z,95787.25
2023-03-26T08:42:06.599Z,95794.03
2023-03-26T08:44:58.936Z,95784.69
2023-03-26T08:48:04.161Z,95790.63
2023-03-26T08:50:51.316Z,95777.06
2023-03-26T08:53:23.481Z,95778.75
2023-03-26T08:56:18.426Z,95763.44
2023-03-26T08:59:06.917Z,95760.91
2023-03-26T09:01:55.809Z,95757.50
2023-03-26T09:04:53.728Z,95743.91
2023-03-26T09:08:06.120Z,95732.03
2023-03-26T09:10:51.873Z,95731.16
2023-03-26T09:13:33.221Z,95730.28
2023-03-26T09:16:23.421Z,95722.63
2023-03-26T09:19:14.601Z,95713.28
2023-03-26T09:21:55.717Z,95717.53
2023-03-26T09:25:04.153Z,95709.03
2023-03-26T09:28:05.124Z,95697.97
2023-03-26T09:30:50.347Z,95686.91
2023-03-26T09:34:13.757Z,95685.19
2023-03-26T09:36:52.881Z,95678.38
2023-03-26T09:39:34.697Z,95677.50
2023-03-26T09:42:21.120Z,95677.50
2023-03-26T09:45:25.208Z,95667.34
2023-03-26T09:48:24.089Z,95667.38
2023-03-26T09:51:05.496Z,95662.25
2023-03-26T09:53:50.791Z,95660.53
2023-03-26T09:56:39.702Z,95646.94
2023-03-26T09:59:27.861Z,95657.13
2023-03-26T10:02:12.532Z,95663.88
2023-03-26T10:05:05.233Z,95650.28
2023-03-26T10:08:14.437Z,95647.72
2023-03-26T10:11:05.724Z,95638.34
2023-03-26T10:13:44.321Z,95632.44
2023-03-26T10:16:42.802Z,95620.50
2023-03-26T10:19:43.086Z,95639.22
2023-03-26T10:22:24.775Z,95639.22
2023-03-26T10:25:28.841Z,95635.81
2023-03-26T10:28:22.548Z,95635.78
2023-03-26T10:31:07.007Z,95637.47
2023-03-26T10:33:54.005Z,95642.59
2023-03-26T10:36:35.605Z,95642.59
2023-03-26T10:39:36.324Z,95634.94
2023-03-26T10:42:16.671Z,95636.69
2023-03-26T10:45:00.564Z,95639.22
2023-03-26T10:48:06.143Z,95637.56
2023-03-26T10:50:50.853Z,95636.69
2023-03-26T10:53:29.391Z,95643.56
2023-03-26T10:56:07.129Z,95640.16
2023-03-26T10:58:48.410Z,95646.16
2023-03-26T11:01:35.971Z,95647.06
2023-03-26T11:04:20.592Z,95655.56
2023-03-26T11:06:54.638Z,95642.00
2023-03-26T11:09:39.233Z,95642.84
2023-03-26T11:12:31.418Z,95645.38
2023-03-26T11:15:35.264Z,95654.72
2023-03-26T11:18:22.170Z,95640.28
2023-03-26T11:21:24.513Z,95644.53
2023-03-26T11:24:06.053Z,95639.47
2023-03-26T11:26:55.649Z,95632.66
2023-03-26T11:29:33.718Z,95631.81
2023-03-26T11:32:11.605Z,95634.34
2023-03-26T11:34:43.298Z,95630.09
2023-03-26T11:37:19.390Z,95644.56
2023-03-26T11:39:51.161Z,95629.25
2023-03-26T11:42:22.642Z,95630.13
2023-03-26T11:45:05.620Z,95629.28
2023-03-26T11:47:53.595Z,95624.16
2023-03-26T11:50:34.205Z,95633.50
2023-03-26T11:53:12.903Z,95622.47
2023-03-26T11:55:44.597Z,95625.88
2023-03-26T11:58:38.249Z,95611.44
2023-03-26T12:01:14.408Z,95608.03
2023-03-26T12:03:41.155Z,95606.31
2023-03-26T12:06:25.639Z,95593.59
2023-03-26T12:08:53.878Z,95576.56
2023-03-26T12:11:28.300Z,95558.66
2023-03-26T12:14:00.299Z,95564.50
2023-03-26T12:16:27.263Z,95553.41
2023-03-26T12:19:01.026Z,95549.94
2023-03-26T12:21:27.458Z,95542.28
2023-03-26T12:24:02.445Z,95536.38
2023-03-26T12:26:35.705Z,95538.16
2023-03-26T12:29:16.527Z,95529.59
2023-03-26T12:32:15.790Z,95527.00
2023-03-26T12:34:42.657Z,95514.22
2023-03-26T12:37:34.454Z,95509.88
2023-03-26T12:40:27.688Z,95507.22
2023-03-26T12:44:54.770Z,95513.16
2023-03-26T12:47:55.533Z,95501.94
2023-03-26T12:48:45.369Z,95496.78
2023-03-26T12:51:57.495Z,95505.28
2023-03-26T12:54:50.452Z,95507.75
2023-03-26T12:57:25.030Z,95500.13
2023-03-26T13:00:58.802Z,95490.69
2023-03-26T13:03:41.737Z,95497.53
2023-03-26T13:06:48.526Z,95494.97
2023-03-26T13:09:52.871Z,95498.38
2023-03-26T13:12:38.080Z,95499.19
2023-03-26T13:15:25.484Z,95494.88
2023-03-26T13:18:19.640Z,95494.03
2023-03-26T13:21:07.320Z,95487.09
2023-03-26T13:23:59.051Z,95474.19
2023-03-26T13:26:42.117Z,95459.66
2023-03-26T13:29:17.507Z,95454.38
2023-03-26T13:31:54.406Z,95447.50
2023-03-26T13:35:14.938Z,95448.28
2023-03-26T13:37:58.650Z,95438.69
2023-03-26T13:40:46.795Z,95445.09
2023-03-26T13:43:23.294Z,95444.03
2023-03-26T13:45:59.505Z,95439.38
2023-03-26T13:48:30.093Z,95421.91
2023-03-26T13:51:15.345Z,95420.16
2023-03-26T13:54:01.053Z,95418.44
2023-03-26T13:56:43.185Z,95422.25
2023-03-26T13:59:26.114Z,95426.63
2023-03-26T14:01:56.964Z,95421.75
2023-03-26T14:04:32.420Z,95433.88
2023-03-26T14:07:13.495Z,95417.84
2023-03-26T14:09:53.526Z,95418.06
2023-03-26T14:12:54.174Z,95416.16
2023-03-26T14:15:30.823Z,95411.19
2023-03-26T14:18:03.678Z,95405.19
2023-03-26T14:20:48.373Z,95396.59
2023-03-26T14:23:34.866Z,95395.03
2023-03-26T14:26:22.801Z,95389.09
2023-03-26T14:29:11.188Z,95391.81
2023-03-26T14:32:09.706Z,95397.97
2023-03-26T14:34:54.897Z,95383.53
2023-03-26T14:37:52.973Z,95368.31
2023-03-26T14:40:47.844Z,95374.34
2023-03-26T14:43:43.880Z,95375.75
2023-03-26T14:46:40.882Z,95377.75
2023-03-26T14:49:22.858Z,95358.44
2023-03-26T14:51:55.702Z,95347.81
2023-03-26T14:54:27.035Z,95340.78
2023-03-26T14:57:01.015Z,95339.25
2023-03-26T15:00:17.930Z,95328.16
2023-03-26T15:03:03.004Z,95334.25
2023-03-26T15:06:00.637Z,95337.88
2023-03-26T15:08:39.324Z,95353.34
2023-03-26T15:11:17.846Z,95350.84
2023-03-26T15:14:16.368Z,95349.41
2023-03-26T15:17:01.690Z,95357.34
2023-03-26T15:20:09.195Z,95360.06
2023-03-26T15:23:01.925Z,95354.22
2023-03-26T15:25:54.740Z,95344.97
2023-03-26T15:29:00.203Z,95344.22
2023-03-26T15:31:47.597Z,95339.03
2023-03-26T15:34:50.640Z,95342.56
2023-03-26T15:37:35.782Z,95358.81
2023-03-26T15:40:23.904Z,95370.91
2023-03-26T15:42:53.308Z,95396.34
2023-03-26T15:45:35.265Z,95393.88
2023-03-26T15:48:13.894Z,95375.00
2023-03-26T15:50:58.807Z,95357.16
2023-03-26T15:53:49.118Z,95360.78
2023-03-26T15:56:58.018Z,95369.38
2023-03-26T15:59:37.059Z,95371.09
2023-03-26T16:02:07.506Z,95376.16
2023-03-26T16:05:16.908Z,95366.78
2023-03-26T16:07:47.036Z,95362.44
2023-03-26T16:10:40.849Z,95362.50
2023-03-26T16:13:19.366Z,95362.41
2023-03-26T16:16:04.252Z,95356.47
2023-03-26T16:18:36.880Z,95356.47
2023-03-26T16:21:31.659Z,95359.88
2023-03-26T16:24:08.085Z,95371.81
2023-03-26T16:26:43.782Z,95370.16
2023-03-26T16:29:18.361Z,95366.78
2023-03-26T16:32:09.827Z,95366.00
2023-03-26T16:34:48.123Z,95360.03
2023-03-26T16:37:39.838Z,95366.16
2023-03-26T16:40:32.323Z,95370.44
2023-03-26T16:43:05.286Z,95345.91
2023-03-26T16:45:37.269Z,95357.72
2023-03-26T16:48:34.474Z,95356.03
2023-03-26T16:51:14.882Z,95362.81
2023-03-26T16:54:04.275Z,95356.16
2023-03-26T16:56:45.196Z,95352.78
2023-03-26T16:59:36.158Z,95358.78
2023-03-26T17:02:29.057Z,95346.00
2023-03-26T17:05:07.825Z,95342.78
2023-03-26T17:07:41.567Z,95346.25
2023-03-26T17:10:41.316Z,95338.72
2023-03-26T17:13:17.125Z,95338.00
2023-03-26T17:16:01.719Z,95333.78
2023-03-26T17:18:43.084Z,95339.69
2023-03-26T17:21:18.254Z,95341.41
2023-03-26T17:23:55.255Z,95343.06
2023-03-26T17:26:41.114Z,95348.16
2023-03-26T17:29:22.796Z,95355.78
2023-03-26T17:32:01.440Z,95350.72
2023-03-26T17:34:51.458Z,95349.94
2023-03-26T17:37:23.983Z,95347.28
2023-03-26T17:39:50.328Z,95337.88
2023-03-26T17:42:27.359Z,95338.03
2023-03-26T17:44:57.538Z,95340.56
2023-03-26T17:47:38.124Z,95337.16
2023-03-26T17:50:16.291Z,95327.81
2023-03-26T17:52:55.219Z,95325.22
2023-03-26T17:55:31.273Z,95319.41
2023-03-26T17:58:06.760Z,95321.00
2023-03-26T18:00:40.378Z,95326.19
2023-03-26T18:03:18.969Z,95331.28
2023-03-26T18:05:46.924Z,95329.56
2023-03-26T18:08:28.521Z,95327.88
2023-03-26T18:11:13.889Z,95337.97
2023-03-26T18:13:55.661Z,95336.28
2023-03-26T18:16:28.953Z,95338.03
2023-03-26T18:19:00.574Z,95333.75
2023-03-26T18:21:37.415Z,95337.97
2023-03-26T18:24:13.663Z,95335.47
2023-03-26T18:26:43.131Z,95337.97
2023-03-26T18:29:23.966Z,95336.31
2023-03-26T18:31:57.551Z,95343.06
2023-03-26T18:34:26.034Z,95347.38
2023-03-26T18:37:08.454Z,95338.09
2023-03-26T18:39:35.062Z,95332.28
2023-03-26T18:42:01.612Z,95336.53
2023-03-26T18:44:28.257Z,95334.81
2023-03-26T18:46:55.356Z,95339.09
2023-03-26T18:49:23.912Z,95345.09
2023-03-26T18:51:57.079Z,95351.94
2023-03-26T18:54:29.273Z,95358.78
2023-03-26T18:56:56.160Z,95361.31
2023-03-26T18:59:31.787Z,95353.69
2023-03-26T19:02:13.609Z,95349.59
2023-03-26T19:04:46.218Z,95346.28
2023-03-26T19:07:16.363Z,95341.22
2023-03-26T19:09:43.912Z,95331.06
2023-03-26T19:12:28.235Z,95328.53
2023-03-26T19:14:57.885Z,95333.69
2023-03-26T19:17:30.606Z,95329.47
2023-03-26T19:19:57.657Z,95340.53
2023-03-26T19:22:25.204Z,95343.97
2023-03-26T19:24:58.041Z,95345.66
2023-03-26T19:27:24.616Z,95340.56
2023-03-26T19:29:51.191Z,95343.97
2023-03-26T19:32:20.696Z,95337.16
2023-03-26T19:34:48.377Z,95330.41
2023-03-26T19:37:20.315Z,95337.19
2023-03-26T19:39:53.905Z,95338.91
2023-03-26T19:42:23.821Z,95337.19
2023-03-26T19:44:51.648Z,95339.78
2023-03-26T19:47:43.468Z,95333.84
2023-03-26T19:50:27.405Z,95347.38
2023-03-26T19:53:17.699Z,95354.19
2023-03-26T19:56:10.880Z,95343.16
2023-03-26T19:58:37.539Z,95338.94
2023-03-26T20:01:04.588Z,95338.09
2023-03-26T20:03:40.962Z,95345.78
2023-03-26T20:06:14.962Z,95342.41
2023-03-26T20:08:41.522Z,95345.81
2023-03-26T20:11:18.485Z,95344.97
2023-03-26T20:13:45.293Z,95347.53
2023-03-26T20:16:18.277Z,95353.47
2023-03-26T20:18:44.832Z,95358.53
2023-03-26T20:21:12.497Z,95355.19
2023-03-26T20:23:40.338Z,95351.81
2023-03-26T20:26:12.671Z,95361.16
2023-03-26T20:28:47.702Z,95361.16
2023-03-26T20:31:19.198Z,95353.53
2023-03-26T20:33:46.422Z,95359.47
2023-03-26T20:36:13.694Z,95370.50
2023-03-26T20:38:40.973Z,95371.34
2023-03-26T20:41:15.067Z,95369.66
2023-03-26T20:43:42.418Z,95377.28
2023-03-26T20:46:23.340Z,95380.69
2023-03-26T20:48:58.005Z,95385.78
2023-03-26T20:51:24.512Z,95382.41
2023-03-26T20:53:50.880Z,95375.63
2023-03-26T20:56:19.907Z,95383.25
2023-03-26T20:58:54.768Z,95386.63
2023-03-26T21:01:27.727Z,95381.53
2023-03-26T21:03:54.451Z,95386.63
2023-03-26T21:06:20.922Z,95377.31
2023-03-26T21:08:47.654Z,95385.78
2023-03-26T21:11:26.546Z,95379.88
2023-03-26T21:14:30.925Z,95378.16
2023-03-26T21:16:57.860Z,95369.69
2023-03-26T21:19:25.121Z,95373.09
2023-03-26T21:21:59.400Z,95371.41
2023-03-26T21:24:39.986Z,95373.09
2023-03-26T21:27:34.320Z,95373.09
2023-03-26T21:30:01.079Z,95375.63
2023-03-26T21:32:29.084Z,95380.72
2023-03-26T21:34:58.954Z,95372.25
2023-03-26T21:37:26.672Z,95386.66
2023-03-26T21:39:53.297Z,95385.78
2023-03-26T21:42:20.097Z,95387.50
2023-03-26T21:44:46.883Z,95387.50
2023-03-26T21:47:13.996Z,95392.59
2023-03-26T21:49:41.220Z,95392.59
2023-03-26T21:52:13.529Z,95400.22
2023-03-26T21:54:42.917Z,95401.06
2023-03-26T21:57:34.410Z,95401.03
2023-03-26T22:00:08.347Z,95409.53
2023-03-26T22:02:59.467Z,95406.13
2023-03-26T22:05:35.045Z,95404.47
2023-03-26T22:08:07.998Z,95409.53
2023-03-26T22:10:34.479Z,95395.13
2023-03-26T22:13:00.843Z,95393.44
2023-03-26T22:15:30.602Z,95401.06
2023-03-26T22:18:02.262Z,95396.81
2023-03-26T22:20:29.305Z,95401.06
2023-03-26T22:22:55.835Z,95403.59
2023-03-26T22:25:23.413Z,95402.75
2023-03-26T22:27:51.032Z,95399.34
2023-03-26T22:30:18.905Z,95398.53
2023-03-26T22:32:45.460Z,95409.53
2023-03-26T22:35:12.904Z,95406.16
2023-03-26T22:37:39.964Z,95403.59
2023-03-26T22:40:13.563Z,95407.84
2023-03-26T22:42:41.221Z,95409.56
2023-03-26T22:45:09.171Z,95404.44
2023-03-26T22:47:35.988Z,95406.16
2023-03-26T22:50:04.938Z,95401.91
2023-03-26T22:52:31.481Z,95415.44
2023-03-26T22:54:57.932Z,95409.53
2023-03-26T22:57:24.377Z,95414.63
2023-03-26T22:59:51.998Z,95418.00
2023-03-26T23:02:19.101Z,95407.84
2023-03-26T23:04:47.701Z,95403.59
2023-03-26T23:07:14.307Z,95410.38
2023-03-26T23:09:41.551Z,95406.13
2023-03-26T23:12:08.079Z,95401.91
2023-03-26T23:14:34.568Z,95405.31
2023-03-26T23:17:01.505Z,95412.06
2023-03-26T23:19:29.817Z,95415.44
2023-03-26T23:21:56.554Z,95413.75
2023-03-26T23:24:26.185Z,95411.22
2023-03-26T23:26:53.125Z,95420.53
2023-03-26T23:29:19.808Z,95417.13
2023-03-26T23:31:46.299Z,95423.06
2023-03-26T23:34:13.470Z,95417.13
2023-03-26T23:36:40.856Z,95420.50
2023-03-26T23:39:08.975Z,95420.53
2023-03-26T23:41:35.382Z,95417.13
2023-03-26T23:44:01.852Z,95419.69
2023-03-26T23:46:34.530Z,95404.44
2023-03-26T23:49:04.467Z,95412.91
2023-03-26T23:51:32.042Z,95423.06
2023-03-26T23:53:59.737Z,95418.81
2023-03-26T23:56:27.656Z,95407.81
2023-03-26T23:58:55.079Z,95404.44
